sensor_id;sensor_type;location;lat;lon;timestamp;P1;durP1;ratioP1;P2;durP2;ratioP2
59028;SDS011;45919;51.420;5.454;2022-09-09T00:00:40;4.25;;;2.03;;
59028;SDS011;45919;51.420;5.454;2022-09-09T00:01:58;2.75;;;1.83;;
59028;SDS011;45919;51.420;5.454;2022-09-09T00:03:07;3.38;;;1.98;;
59028;SDS011;45919;51.420;5.454;2022-09-09T00:04:28;4.22;;;2.22;;
59028;SDS011;45919;51.420;5.454;2022-09-09T00:05:32;6.07;;;2.30;;
59028;SDS011;45919;51.420;5.454;2022-09-09T00:06:45;4.53;;;1.75;;
59028;SDS011;45919;51.420;5.454;2022-09-09T00:07:52;4.35;;;1.90;;
59028;SDS011;45919;51.420;5.454;2022-09-09T00:11:18;4.18;;;1.83;;
59028;SDS011;45919;51.420;5.454;2022-09-09T00:14:03;2.78;;;1.70;;
59028;SDS011;45919;51.420;5.454;2022-09-09T00:15:13;2.40;;;1.73;;
59028;SDS011;45919;51.420;5.454;2022-09-09T00:16:21;4.05;;;1.70;;
59028;SDS011;45919;51.420;5.454;2022-09-09T00:20:09;3.33;;;1.90;;
59028;SDS011;45919;51.420;5.454;2022-09-09T00:21:16;4.47;;;2.13;;
59028;SDS011;45919;51.420;5.454;2022-09-09T00:22:19;3.60;;;2.10;;
59028;SDS011;45919;51.420;5.454;2022-09-09T00:23:25;5.47;;;1.83;;
59028;SDS011;45919;51.420;5.454;2022-09-09T00:24:32;5.50;;;1.98;;
59028;SDS011;45919;51.420;5.454;2022-09-09T00:25:43;5.25;;;2.03;;
59028;SDS011;45919;51.420;5.454;2022-09-09T00:26:53;3.45;;;1.80;;
59028;SDS011;45919;51.420;5.454;2022-09-09T00:30:16;3.08;;;2.00;;
59028;SDS011;45919;51.420;5.454;2022-09-09T00:31:25;5.35;;;1.77;;
59028;SDS011;45919;51.420;5.454;2022-09-09T00:32:29;2.90;;;1.90;;
59028;SDS011;45919;51.420;5.454;2022-09-09T00:33:32;4.13;;;1.92;;
59028;SDS011;45919;51.420;5.454;2022-09-09T00:34:33;5.13;;;1.98;;
59028;SDS011;45919;51.420;5.454;2022-09-09T00:35:42;3.28;;;2.17;;
59028;SDS011;45919;51.420;5.454;2022-09-09T00:37:15;4.47;;;1.90;;
59028;SDS011;45919;51.420;5.454;2022-09-09T00:38:19;3.75;;;1.98;;
59028;SDS011;45919;51.420;5.454;2022-09-09T00:39:45;6.00;;;2.33;;
59028;SDS011;45919;51.420;5.454;2022-09-09T00:41:06;3.33;;;1.83;;
59028;SDS011;45919;51.420;5.454;2022-09-09T00:42:20;2.90;;;1.90;;
59028;SDS011;45919;51.420;5.454;2022-09-09T00:44:32;4.97;;;2.15;;
59028;SDS011;45919;51.420;5.454;2022-09-09T00:46:50;3.58;;;2.05;;
59028;SDS011;45919;51.420;5.454;2022-09-09T00:48:02;3.10;;;1.70;;
59028;SDS011;45919;51.420;5.454;2022-09-09T00:50:49;4.65;;;2.20;;
59028;SDS011;45919;51.420;5.454;2022-09-09T00:52:17;4.35;;;2.30;;
59028;SDS011;45919;51.420;5.454;2022-09-09T00:57:26;6.10;;;2.05;;
59028;SDS011;45919;51.420;5.454;2022-09-09T00:58:32;3.80;;;1.80;;
59028;SDS011;45919;51.420;5.454;2022-09-09T01:00:50;3.33;;;2.13;;
59028;SDS011;45919;51.420;5.454;2022-09-09T01:01:58;3.33;;;1.73;;
59028;SDS011;45919;51.420;5.454;2022-09-09T01:04:26;6.20;;;2.10;;
59028;SDS011;45919;51.420;5.454;2022-09-09T01:05:39;3.75;;;2.00;;
59028;SDS011;45919;51.420;5.454;2022-09-09T01:06:43;5.32;;;2.03;;
59028;SDS011;45919;51.420;5.454;2022-09-09T01:07:53;6.40;;;2.47;;
59028;SDS011;45919;51.420;5.454;2022-09-09T01:09:01;3.35;;;2.20;;
59028;SDS011;45919;51.420;5.454;2022-09-09T01:10:11;3.83;;;2.28;;
59028;SDS011;45919;51.420;5.454;2022-09-09T01:13:22;3.55;;;2.20;;
59028;SDS011;45919;51.420;5.454;2022-09-09T01:15:37;3.63;;;2.30;;
59028;SDS011;45919;51.420;5.454;2022-09-09T01:16:43;4.20;;;2.08;;
59028;SDS011;45919;51.420;5.454;2022-09-09T01:18:05;4.32;;;2.35;;
59028;SDS011;45919;51.420;5.454;2022-09-09T01:19:14;4.78;;;2.10;;
59028;SDS011;45919;51.420;5.454;2022-09-09T01:21:02;4.40;;;2.30;;
59028;SDS011;45919;51.420;5.454;2022-09-09T01:26:41;4.60;;;2.25;;
59028;SDS011;45919;51.420;5.454;2022-09-09T01:27:44;7.28;;;2.38;;
59028;SDS011;45919;51.420;5.454;2022-09-09T01:28:50;3.33;;;2.00;;
59028;SDS011;45919;51.420;5.454;2022-09-09T01:29:55;5.80;;;2.40;;
59028;SDS011;45919;51.420;5.454;2022-09-09T01:30:57;4.30;;;2.50;;
59028;SDS011;45919;51.420;5.454;2022-09-09T01:32:01;5.05;;;2.25;;
59028;SDS011;45919;51.420;5.454;2022-09-09T01:33:23;5.43;;;2.40;;
59028;SDS011;45919;51.420;5.454;2022-09-09T01:34:25;4.38;;;2.20;;
59028;SDS011;45919;51.420;5.454;2022-09-09T01:38:06;7.78;;;2.15;;
59028;SDS011;45919;51.420;5.454;2022-09-09T01:39:08;3.45;;;2.10;;
59028;SDS011;45919;51.420;5.454;2022-09-09T01:40:09;4.15;;;2.30;;
59028;SDS011;45919;51.420;5.454;2022-09-09T01:41:11;4.22;;;2.25;;
59028;SDS011;45919;51.420;5.454;2022-09-09T01:42:13;3.10;;;2.20;;
59028;SDS011;45919;51.420;5.454;2022-09-09T01:43:18;4.60;;;2.30;;
59028;SDS011;45919;51.420;5.454;2022-09-09T01:44:21;7.07;;;2.90;;
59028;SDS011;45919;51.420;5.454;2022-09-09T01:45:23;4.32;;;2.17;;
59028;SDS011;45919;51.420;5.454;2022-09-09T01:46:25;3.75;;;2.22;;
59028;SDS011;45919;51.420;5.454;2022-09-09T01:47:28;6.65;;;2.35;;
59028;SDS011;45919;51.420;5.454;2022-09-09T01:48:31;3.78;;;2.40;;
59028;SDS011;45919;51.420;5.454;2022-09-09T01:49:33;4.68;;;2.53;;
59028;SDS011;45919;51.420;5.454;2022-09-09T01:50:35;4.53;;;2.33;;
59028;SDS011;45919;51.420;5.454;2022-09-09T01:51:36;6.57;;;3.03;;
59028;SDS011;45919;51.420;5.454;2022-09-09T01:52:40;5.95;;;2.67;;
59028;SDS011;45919;51.420;5.454;2022-09-09T01:53:43;5.30;;;2.65;;
59028;SDS011;45919;51.420;5.454;2022-09-09T01:54:47;5.40;;;2.40;;
59028;SDS011;45919;51.420;5.454;2022-09-09T01:57:17;6.55;;;2.67;;
59028;SDS011;45919;51.420;5.454;2022-09-09T02:00:04;4.38;;;2.20;;
59028;SDS011;45919;51.420;5.454;2022-09-09T02:04:09;5.38;;;2.03;;
59028;SDS011;45919;51.420;5.454;2022-09-09T02:05:40;4.85;;;2.30;;
59028;SDS011;45919;51.420;5.454;2022-09-09T02:06:46;4.22;;;2.25;;
59028;SDS011;45919;51.420;5.454;2022-09-09T02:07:50;5.18;;;2.58;;
59028;SDS011;45919;51.420;5.454;2022-09-09T02:08:56;4.07;;;2.20;;
59028;SDS011;45919;51.420;5.454;2022-09-09T02:11:26;5.85;;;2.42;;
59028;SDS011;45919;51.420;5.454;2022-09-09T02:12:29;5.40;;;2.47;;
59028;SDS011;45919;51.420;5.454;2022-09-09T02:13:32;6.10;;;2.42;;
59028;SDS011;45919;51.420;5.454;2022-09-09T02:14:39;4.68;;;2.33;;
59028;SDS011;45919;51.420;5.454;2022-09-09T02:17:08;6.72;;;2.40;;
59028;SDS011;45919;51.420;5.454;2022-09-09T02:18:12;6.85;;;2.83;;
59028;SDS011;45919;51.420;5.454;2022-09-09T02:19:17;5.88;;;2.33;;
59028;SDS011;45919;51.420;5.454;2022-09-09T02:20:26;9.52;;;2.30;;
59028;SDS011;45919;51.420;5.454;2022-09-09T02:21:35;5.50;;;2.00;;
59028;SDS011;45919;51.420;5.454;2022-09-09T02:22:37;6.07;;;2.67;;
59028;SDS011;45919;51.420;5.454;2022-09-09T02:23:42;5.68;;;2.63;;
59028;SDS011;45919;51.420;5.454;2022-09-09T02:24:47;3.03;;;2.25;;
59028;SDS011;45919;51.420;5.454;2022-09-09T02:25:53;6.03;;;2.53;;
59028;SDS011;45919;51.420;5.454;2022-09-09T02:26:56;7.25;;;2.95;;
59028;SDS011;45919;51.420;5.454;2022-09-09T02:28:01;7.05;;;2.33;;
59028;SDS011;45919;51.420;5.454;2022-09-09T02:29:12;6.85;;;2.40;;
59028;SDS011;45919;51.420;5.454;2022-09-09T02:30:18;3.47;;;2.25;;
59028;SDS011;45919;51.420;5.454;2022-09-09T02:31:22;5.30;;;2.20;;
59028;SDS011;45919;51.420;5.454;2022-09-09T02:32:25;4.35;;;2.15;;
59028;SDS011;45919;51.420;5.454;2022-09-09T02:33:28;5.57;;;2.20;;
59028;SDS011;45919;51.420;5.454;2022-09-09T02:34:36;5.07;;;2.22;;
59028;SDS011;45919;51.420;5.454;2022-09-09T02:35:42;5.82;;;2.63;;
59028;SDS011;45919;51.420;5.454;2022-09-09T02:36:46;3.88;;;2.35;;
59028;SDS011;45919;51.420;5.454;2022-09-09T02:37:50;6.38;;;2.40;;
59028;SDS011;45919;51.420;5.454;2022-09-09T02:38:54;6.25;;;2.22;;
59028;SDS011;45919;51.420;5.454;2022-09-09T02:39:57;6.32;;;2.30;;
59028;SDS011;45919;51.420;5.454;2022-09-09T02:40:59;3.53;;;2.15;;
59028;SDS011;45919;51.420;5.454;2022-09-09T02:42:05;5.75;;;2.28;;
59028;SDS011;45919;51.420;5.454;2022-09-09T02:43:08;4.63;;;2.28;;
59028;SDS011;45919;51.420;5.454;2022-09-09T02:44:10;8.80;;;2.25;;
59028;SDS011;45919;51.420;5.454;2022-09-09T02:45:14;4.47;;;2.15;;
59028;SDS011;45919;51.420;5.454;2022-09-09T02:46:28;7.90;;;2.50;;
59028;SDS011;45919;51.420;5.454;2022-09-09T02:49:06;5.47;;;2.08;;
59028;SDS011;45919;51.420;5.454;2022-09-09T02:50:32;4.40;;;2.10;;
59028;SDS011;45919;51.420;5.454;2022-09-09T02:51:39;4.85;;;2.33;;
59028;SDS011;45919;51.420;5.454;2022-09-09T02:55:50;8.25;;;2.47;;
59028;SDS011;45919;51.420;5.454;2022-09-09T02:56:56;4.18;;;2.40;;
59028;SDS011;45919;51.420;5.454;2022-09-09T02:58:04;5.50;;;2.10;;
59028;SDS011;45919;51.420;5.454;2022-09-09T02:59:09;4.85;;;2.10;;
59028;SDS011;45919;51.420;5.454;2022-09-09T03:00:11;3.75;;;2.20;;
59028;SDS011;45919;51.420;5.454;2022-09-09T03:01:13;5.53;;;2.60;;
59028;SDS011;45919;51.420;5.454;2022-09-09T03:02:15;8.40;;;2.67;;
59028;SDS011;45919;51.420;5.454;2022-09-09T03:03:17;5.82;;;2.80;;
59028;SDS011;45919;51.420;5.454;2022-09-09T03:04:20;5.88;;;2.42;;
59028;SDS011;45919;51.420;5.454;2022-09-09T03:05:22;8.00;;;2.28;;
59028;SDS011;45919;51.420;5.454;2022-09-09T03:06:24;5.60;;;2.83;;
59028;SDS011;45919;51.420;5.454;2022-09-09T03:07:26;5.93;;;2.40;;
59028;SDS011;45919;51.420;5.454;2022-09-09T03:08:28;6.15;;;2.65;;
59028;SDS011;45919;51.420;5.454;2022-09-09T03:09:30;4.75;;;2.50;;
59028;SDS011;45919;51.420;5.454;2022-09-09T03:10:32;4.47;;;2.45;;
59028;SDS011;45919;51.420;5.454;2022-09-09T03:11:34;7.93;;;2.50;;
59028;SDS011;45919;51.420;5.454;2022-09-09T03:12:36;3.60;;;2.50;;
59028;SDS011;45919;51.420;5.454;2022-09-09T03:13:37;5.25;;;2.80;;
59028;SDS011;45919;51.420;5.454;2022-09-09T03:14:39;5.93;;;2.50;;
59028;SDS011;45919;51.420;5.454;2022-09-09T03:15:40;5.63;;;2.63;;
59028;SDS011;45919;51.420;5.454;2022-09-09T03:16:42;5.78;;;2.60;;
59028;SDS011;45919;51.420;5.454;2022-09-09T03:17:44;8.73;;;2.75;;
59028;SDS011;45919;51.420;5.454;2022-09-09T03:18:46;4.15;;;2.30;;
59028;SDS011;45919;51.420;5.454;2022-09-09T03:19:47;6.78;;;2.72;;
59028;SDS011;45919;51.420;5.454;2022-09-09T03:20:50;5.68;;;2.55;;
59028;SDS011;45919;51.420;5.454;2022-09-09T03:21:52;5.78;;;2.58;;
59028;SDS011;45919;51.420;5.454;2022-09-09T03:22:53;6.38;;;2.22;;
59028;SDS011;45919;51.420;5.454;2022-09-09T03:23:56;5.07;;;2.60;;
59028;SDS011;45919;51.420;5.454;2022-09-09T03:24:58;5.63;;;2.45;;
59028;SDS011;45919;51.420;5.454;2022-09-09T03:26:00;8.77;;;3.05;;
59028;SDS011;45919;51.420;5.454;2022-09-09T03:27:02;8.60;;;2.75;;
59028;SDS011;45919;51.420;5.454;2022-09-09T03:28:03;5.28;;;2.42;;
59028;SDS011;45919;51.420;5.454;2022-09-09T03:29:05;5.47;;;2.50;;
59028;SDS011;45919;51.420;5.454;2022-09-09T03:30:07;5.07;;;3.05;;
59028;SDS011;45919;51.420;5.454;2022-09-09T03:31:09;5.97;;;2.70;;
59028;SDS011;45919;51.420;5.454;2022-09-09T03:32:11;7.85;;;2.58;;
59028;SDS011;45919;51.420;5.454;2022-09-09T03:33:14;5.88;;;2.78;;
59028;SDS011;45919;51.420;5.454;2022-09-09T03:34:17;6.18;;;2.80;;
59028;SDS011;45919;51.420;5.454;2022-09-09T03:35:18;5.30;;;2.47;;
59028;SDS011;45919;51.420;5.454;2022-09-09T03:36:20;4.57;;;2.50;;
59028;SDS011;45919;51.420;5.454;2022-09-09T03:37:22;5.45;;;2.72;;
59028;SDS011;45919;51.420;5.454;2022-09-09T03:38:24;7.70;;;2.58;;
59028;SDS011;45919;51.420;5.454;2022-09-09T03:39:26;4.88;;;2.80;;
59028;SDS011;45919;51.420;5.454;2022-09-09T03:40:27;4.75;;;2.72;;
59028;SDS011;45919;51.420;5.454;2022-09-09T03:41:29;5.65;;;3.00;;
59028;SDS011;45919;51.420;5.454;2022-09-09T03:42:31;6.20;;;2.85;;
59028;SDS011;45919;51.420;5.454;2022-09-09T03:43:33;5.38;;;3.10;;
59028;SDS011;45919;51.420;5.454;2022-09-09T03:44:35;4.50;;;2.53;;
59028;SDS011;45919;51.420;5.454;2022-09-09T03:45:36;6.57;;;2.60;;
59028;SDS011;45919;51.420;5.454;2022-09-09T03:46:38;8.32;;;2.72;;
59028;SDS011;45919;51.420;5.454;2022-09-09T03:47:39;7.13;;;2.90;;
59028;SDS011;45919;51.420;5.454;2022-09-09T03:48:41;5.32;;;2.70;;
59028;SDS011;45919;51.420;5.454;2022-09-09T03:49:43;5.97;;;2.80;;
59028;SDS011;45919;51.420;5.454;2022-09-09T03:50:45;4.45;;;2.55;;
59028;SDS011;45919;51.420;5.454;2022-09-09T03:51:51;5.38;;;2.70;;
59028;SDS011;45919;51.420;5.454;2022-09-09T03:52:52;8.55;;;2.70;;
59028;SDS011;45919;51.420;5.454;2022-09-09T03:53:54;7.47;;;3.10;;
59028;SDS011;45919;51.420;5.454;2022-09-09T03:54:59;5.90;;;2.83;;
59028;SDS011;45919;51.420;5.454;2022-09-09T03:56:00;6.47;;;2.80;;
59028;SDS011;45919;51.420;5.454;2022-09-09T03:57:02;4.90;;;2.75;;
59028;SDS011;45919;51.420;5.454;2022-09-09T03:58:05;4.57;;;2.85;;
59028;SDS011;45919;51.420;5.454;2022-09-09T03:59:07;5.57;;;2.83;;
59028;SDS011;45919;51.420;5.454;2022-09-09T04:00:09;6.28;;;2.42;;
59028;SDS011;45919;51.420;5.454;2022-09-09T04:01:12;6.35;;;3.13;;
59028;SDS011;45919;51.420;5.454;2022-09-09T04:02:14;5.78;;;2.35;;
59028;SDS011;45919;51.420;5.454;2022-09-09T04:03:16;8.07;;;2.65;;
59028;SDS011;45919;51.420;5.454;2022-09-09T04:04:18;10.43;;;2.60;;
59028;SDS011;45919;51.420;5.454;2022-09-09T04:05:21;6.40;;;2.67;;
59028;SDS011;45919;51.420;5.454;2022-09-09T04:06:22;6.20;;;2.70;;
59028;SDS011;45919;51.420;5.454;2022-09-09T04:07:24;5.90;;;2.60;;
59028;SDS011;45919;51.420;5.454;2022-09-09T04:08:26;9.18;;;3.20;;
59028;SDS011;45919;51.420;5.454;2022-09-09T04:09:27;7.68;;;2.97;;
59028;SDS011;45919;51.420;5.454;2022-09-09T04:10:29;7.78;;;2.65;;
59028;SDS011;45919;51.420;5.454;2022-09-09T04:11:31;7.85;;;2.67;;
59028;SDS011;45919;51.420;5.454;2022-09-09T04:12:32;5.35;;;3.00;;
59028;SDS011;45919;51.420;5.454;2022-09-09T04:13:34;7.30;;;3.05;;
59028;SDS011;45919;51.420;5.454;2022-09-09T04:14:38;7.72;;;2.80;;
59028;SDS011;45919;51.420;5.454;2022-09-09T04:15:40;7.93;;;2.60;;
59028;SDS011;45919;51.420;5.454;2022-09-09T04:16:42;8.70;;;3.00;;
59028;SDS011;45919;51.420;5.454;2022-09-09T04:17:45;5.65;;;3.03;;
59028;SDS011;45919;51.420;5.454;2022-09-09T04:18:47;6.80;;;3.35;;
59028;SDS011;45919;51.420;5.454;2022-09-09T04:19:49;4.90;;;2.80;;
59028;SDS011;45919;51.420;5.454;2022-09-09T04:20:51;5.32;;;3.17;;
59028;SDS011;45919;51.420;5.454;2022-09-09T04:21:54;8.40;;;3.05;;
59028;SDS011;45919;51.420;5.454;2022-09-09T04:22:55;6.03;;;2.83;;
59028;SDS011;45919;51.420;5.454;2022-09-09T04:23:57;7.45;;;3.90;;
59028;SDS011;45919;51.420;5.454;2022-09-09T04:24:58;6.00;;;2.83;;
59028;SDS011;45919;51.420;5.454;2022-09-09T04:26:00;7.25;;;3.42;;
59028;SDS011;45919;51.420;5.454;2022-09-09T04:27:03;5.85;;;3.10;;
59028;SDS011;45919;51.420;5.454;2022-09-09T04:28:04;8.00;;;3.08;;
59028;SDS011;45919;51.420;5.454;2022-09-09T04:29:06;6.05;;;2.92;;
59028;SDS011;45919;51.420;5.454;2022-09-09T04:30:08;10.10;;;3.38;;
59028;SDS011;45919;51.420;5.454;2022-09-09T04:31:15;8.85;;;3.60;;
59028;SDS011;45919;51.420;5.454;2022-09-09T04:32:19;8.25;;;3.17;;
59028;SDS011;45919;51.420;5.454;2022-09-09T04:33:21;7.63;;;3.20;;
59028;SDS011;45919;51.420;5.454;2022-09-09T04:34:22;5.07;;;2.80;;
59028;SDS011;45919;51.420;5.454;2022-09-09T04:35:24;6.72;;;3.00;;
59028;SDS011;45919;51.420;5.454;2022-09-09T04:36:26;8.18;;;3.28;;
59028;SDS011;45919;51.420;5.454;2022-09-09T04:37:27;7.28;;;3.28;;
59028;SDS011;45919;51.420;5.454;2022-09-09T04:38:29;8.05;;;3.03;;
59028;SDS011;45919;51.420;5.454;2022-09-09T04:39:31;8.32;;;3.42;;
59028;SDS011;45919;51.420;5.454;2022-09-09T04:40:33;7.38;;;3.22;;
59028;SDS011;45919;51.420;5.454;2022-09-09T04:41:34;7.57;;;3.10;;
59028;SDS011;45919;51.420;5.454;2022-09-09T04:42:36;10.30;;;3.22;;
59028;SDS011;45919;51.420;5.454;2022-09-09T04:43:38;9.77;;;3.28;;
59028;SDS011;45919;51.420;5.454;2022-09-09T04:44:40;5.50;;;2.70;;
59028;SDS011;45919;51.420;5.454;2022-09-09T04:45:42;8.13;;;3.47;;
59028;SDS011;45919;51.420;5.454;2022-09-09T04:46:45;6.60;;;2.88;;
59028;SDS011;45919;51.420;5.454;2022-09-09T04:47:46;9.02;;;3.00;;
59028;SDS011;45919;51.420;5.454;2022-09-09T04:48:48;7.88;;;3.38;;
59028;SDS011;45919;51.420;5.454;2022-09-09T04:49:50;5.80;;;3.00;;
59028;SDS011;45919;51.420;5.454;2022-09-09T04:50:53;9.00;;;3.10;;
59028;SDS011;45919;51.420;5.454;2022-09-09T04:51:56;6.05;;;3.03;;
59028;SDS011;45919;51.420;5.454;2022-09-09T04:53:01;9.48;;;3.45;;
59028;SDS011;45919;51.420;5.454;2022-09-09T04:54:06;5.65;;;3.47;;
59028;SDS011;45919;51.420;5.454;2022-09-09T04:55:08;7.93;;;3.33;;
59028;SDS011;45919;51.420;5.454;2022-09-09T04:56:11;7.78;;;3.30;;
59028;SDS011;45919;51.420;5.454;2022-09-09T04:57:14;7.00;;;3.00;;
59028;SDS011;45919;51.420;5.454;2022-09-09T04:58:18;9.32;;;3.17;;
59028;SDS011;45919;51.420;5.454;2022-09-09T04:59:22;9.63;;;3.40;;
59028;SDS011;45919;51.420;5.454;2022-09-09T05:00:24;7.05;;;3.10;;
59028;SDS011;45919;51.420;5.454;2022-09-09T05:01:26;10.95;;;3.40;;
59028;SDS011;45919;51.420;5.454;2022-09-09T05:02:28;7.35;;;2.75;;
59028;SDS011;45919;51.420;5.454;2022-09-09T05:03:31;10.25;;;3.45;;
59028;SDS011;45919;51.420;5.454;2022-09-09T05:04:33;4.90;;;3.05;;
59028;SDS011;45919;51.420;5.454;2022-09-09T05:05:35;8.25;;;3.63;;
59028;SDS011;45919;51.420;5.454;2022-09-09T05:06:37;7.28;;;3.00;;
59028;SDS011;45919;51.420;5.454;2022-09-09T05:07:38;4.45;;;2.83;;
59028;SDS011;45919;51.420;5.454;2022-09-09T05:08:40;11.15;;;3.33;;
59028;SDS011;45919;51.420;5.454;2022-09-09T05:09:43;6.95;;;3.60;;
59028;SDS011;45919;51.420;5.454;2022-09-09T05:10:46;6.15;;;2.60;;
59028;SDS011;45919;51.420;5.454;2022-09-09T05:11:47;8.38;;;3.20;;
59028;SDS011;45919;51.420;5.454;2022-09-09T05:12:53;9.20;;;3.22;;
59028;SDS011;45919;51.420;5.454;2022-09-09T05:13:55;7.53;;;3.15;;
59028;SDS011;45919;51.420;5.454;2022-09-09T05:14:59;10.38;;;3.30;;
59028;SDS011;45919;51.420;5.454;2022-09-09T05:16:01;11.45;;;3.40;;
59028;SDS011;45919;51.420;5.454;2022-09-09T05:17:03;8.48;;;3.22;;
59028;SDS011;45919;51.420;5.454;2022-09-09T05:18:05;5.38;;;2.65;;
59028;SDS011;45919;51.420;5.454;2022-09-09T05:19:06;9.77;;;2.85;;
59028;SDS011;45919;51.420;5.454;2022-09-09T05:20:09;6.72;;;3.05;;
59028;SDS011;45919;51.420;5.454;2022-09-09T05:21:12;10.20;;;3.08;;
59028;SDS011;45919;51.420;5.454;2022-09-09T05:22:21;8.85;;;3.10;;
59028;SDS011;45919;51.420;5.454;2022-09-09T05:23:24;10.95;;;3.42;;
59028;SDS011;45919;51.420;5.454;2022-09-09T05:24:25;11.18;;;3.00;;
59028;SDS011;45919;51.420;5.454;2022-09-09T05:25:27;9.43;;;3.42;;
59028;SDS011;45919;51.420;5.454;2022-09-09T05:26:28;8.82;;;3.22;;
59028;SDS011;45919;51.420;5.454;2022-09-09T05:27:30;7.75;;;3.10;;
59028;SDS011;45919;51.420;5.454;2022-09-09T05:28:34;8.05;;;3.40;;
59028;SDS011;45919;51.420;5.454;2022-09-09T05:29:39;9.10;;;3.22;;
59028;SDS011;45919;51.420;5.454;2022-09-09T05:30:42;6.55;;;2.83;;
59028;SDS011;45919;51.420;5.454;2022-09-09T05:31:44;7.55;;;2.95;;
59028;SDS011;45919;51.420;5.454;2022-09-09T05:32:46;8.20;;;3.15;;
59028;SDS011;45919;51.420;5.454;2022-09-09T05:33:49;6.20;;;3.00;;
59028;SDS011;45919;51.420;5.454;2022-09-09T05:34:50;7.80;;;3.20;;
59028;SDS011;45919;51.420;5.454;2022-09-09T05:35:59;7.07;;;3.03;;
59028;SDS011;45919;51.420;5.454;2022-09-09T05:37:03;7.93;;;3.33;;
59028;SDS011;45919;51.420;5.454;2022-09-09T05:38:05;6.47;;;2.80;;
59028;SDS011;45919;51.420;5.454;2022-09-09T05:39:07;7.10;;;3.40;;
59028;SDS011;45919;51.420;5.454;2022-09-09T05:40:08;10.20;;;3.10;;
59028;SDS011;45919;51.420;5.454;2022-09-09T05:41:12;8.25;;;2.97;;
59028;SDS011;45919;51.420;5.454;2022-09-09T05:42:16;7.30;;;3.47;;
59028;SDS011;45919;51.420;5.454;2022-09-09T05:43:18;7.72;;;3.25;;
59028;SDS011;45919;51.420;5.454;2022-09-09T05:44:21;5.10;;;2.90;;
59028;SDS011;45919;51.420;5.454;2022-09-09T05:45:25;7.70;;;3.00;;
59028;SDS011;45919;51.420;5.454;2022-09-09T05:46:26;9.75;;;3.00;;
59028;SDS011;45919;51.420;5.454;2022-09-09T05:47:28;7.70;;;3.10;;
59028;SDS011;45919;51.420;5.454;2022-09-09T05:48:33;10.13;;;3.40;;
59028;SDS011;45919;51.420;5.454;2022-09-09T05:49:38;7.28;;;2.88;;
59028;SDS011;45919;51.420;5.454;2022-09-09T05:50:40;8.85;;;3.47;;
59028;SDS011;45919;51.420;5.454;2022-09-09T05:51:43;12.45;;;3.83;;
59028;SDS011;45919;51.420;5.454;2022-09-09T05:52:45;10.60;;;3.63;;
59028;SDS011;45919;51.420;5.454;2022-09-09T05:53:47;9.48;;;3.65;;
59028;SDS011;45919;51.420;5.454;2022-09-09T05:54:49;7.32;;;2.85;;
59028;SDS011;45919;51.420;5.454;2022-09-09T05:55:58;10.63;;;3.40;;
59028;SDS011;45919;51.420;5.454;2022-09-09T05:57:04;11.20;;;3.47;;
59028;SDS011;45919;51.420;5.454;2022-09-09T05:58:07;5.97;;;3.00;;
59028;SDS011;45919;51.420;5.454;2022-09-09T05:59:08;10.95;;;3.25;;
59028;SDS011;45919;51.420;5.454;2022-09-09T06:00:10;9.27;;;3.40;;
59028;SDS011;45919;51.420;5.454;2022-09-09T06:01:18;7.53;;;2.95;;
59028;SDS011;45919;51.420;5.454;2022-09-09T06:02:21;7.35;;;3.22;;
59028;SDS011;45919;51.420;5.454;2022-09-09T06:03:22;8.32;;;3.22;;
59028;SDS011;45919;51.420;5.454;2022-09-09T06:04:24;9.57;;;3.20;;
59028;SDS011;45919;51.420;5.454;2022-09-09T06:05:26;8.32;;;3.25;;
59028;SDS011;45919;51.420;5.454;2022-09-09T06:06:33;6.13;;;3.10;;
59028;SDS011;45919;51.420;5.454;2022-09-09T06:12:15;8.80;;;3.20;;
59028;SDS011;45919;51.420;5.454;2022-09-09T06:13:17;8.13;;;3.60;;
59028;SDS011;45919;51.420;5.454;2022-09-09T06:14:19;8.75;;;3.20;;
59028;SDS011;45919;51.420;5.454;2022-09-09T06:15:21;8.38;;;3.25;;
59028;SDS011;45919;51.420;5.454;2022-09-09T06:16:24;9.80;;;3.33;;
59028;SDS011;45919;51.420;5.454;2022-09-09T06:17:28;7.63;;;3.58;;
59028;SDS011;45919;51.420;5.454;2022-09-09T06:18:29;8.35;;;3.15;;
59028;SDS011;45919;51.420;5.454;2022-09-09T06:19:31;8.57;;;3.42;;
59028;SDS011;45919;51.420;5.454;2022-09-09T06:20:33;8.93;;;3.30;;
59028;SDS011;45919;51.420;5.454;2022-09-09T06:21:35;11.00;;;3.53;;
59028;SDS011;45919;51.420;5.454;2022-09-09T06:23:41;8.35;;;3.28;;
59028;SDS011;45919;51.420;5.454;2022-09-09T06:24:43;12.00;;;3.95;;
59028;SDS011;45919;51.420;5.454;2022-09-09T06:25:46;9.02;;;3.25;;
59028;SDS011;45919;51.420;5.454;2022-09-09T06:26:48;10.55;;;3.53;;
59028;SDS011;45919;51.420;5.454;2022-09-09T06:27:49;10.50;;;3.70;;
59028;SDS011;45919;51.420;5.454;2022-09-09T06:28:51;10.27;;;3.55;;
59028;SDS011;45919;51.420;5.454;2022-09-09T06:29:54;9.23;;;3.40;;
59028;SDS011;45919;51.420;5.454;2022-09-09T06:30:59;11.60;;;3.70;;
59028;SDS011;45919;51.420;5.454;2022-09-09T06:32:08;8.05;;;3.55;;
59028;SDS011;45919;51.420;5.454;2022-09-09T06:33:10;10.18;;;3.55;;
59028;SDS011;45919;51.420;5.454;2022-09-09T06:34:11;9.75;;;3.88;;
59028;SDS011;45919;51.420;5.454;2022-09-09T06:35:14;12.55;;;3.88;;
59028;SDS011;45919;51.420;5.454;2022-09-09T06:36:16;9.20;;;3.50;;
59028;SDS011;45919;51.420;5.454;2022-09-09T06:37:19;8.80;;;3.78;;
59028;SDS011;45919;51.420;5.454;2022-09-09T06:38:21;11.60;;;3.72;;
59028;SDS011;45919;51.420;5.454;2022-09-09T06:39:24;14.98;;;4.85;;
59028;SDS011;45919;51.420;5.454;2022-09-09T06:40:27;9.43;;;3.70;;
59028;SDS011;45919;51.420;5.454;2022-09-09T06:41:29;7.00;;;3.17;;
59028;SDS011;45919;51.420;5.454;2022-09-09T06:42:34;10.85;;;4.35;;
59028;SDS011;45919;51.420;5.454;2022-09-09T06:43:35;9.43;;;3.47;;
59028;SDS011;45919;51.420;5.454;2022-09-09T06:44:37;7.72;;;3.85;;
59028;SDS011;45919;51.420;5.454;2022-09-09T06:45:39;10.07;;;4.05;;
59028;SDS011;45919;51.420;5.454;2022-09-09T06:46:40;12.35;;;3.65;;
59028;SDS011;45919;51.420;5.454;2022-09-09T06:47:42;10.90;;;3.60;;
59028;SDS011;45919;51.420;5.454;2022-09-09T06:48:44;11.48;;;3.80;;
59028;SDS011;45919;51.420;5.454;2022-09-09T06:49:46;5.80;;;3.20;;
59028;SDS011;45919;51.420;5.454;2022-09-09T06:50:48;12.80;;;4.18;;
59028;SDS011;45919;51.420;5.454;2022-09-09T06:51:53;8.77;;;3.63;;
59028;SDS011;45919;51.420;5.454;2022-09-09T06:52:55;10.30;;;3.75;;
59028;SDS011;45919;51.420;5.454;2022-09-09T06:53:57;8.30;;;3.65;;
59028;SDS011;45919;51.420;5.454;2022-09-09T06:55:00;9.07;;;3.58;;
59028;SDS011;45919;51.420;5.454;2022-09-09T06:56:02;12.55;;;3.88;;
59028;SDS011;45919;51.420;5.454;2022-09-09T06:57:24;12.00;;;4.13;;
59028;SDS011;45919;51.420;5.454;2022-09-09T06:58:36;8.57;;;3.78;;
59028;SDS011;45919;51.420;5.454;2022-09-09T06:59:44;14.25;;;3.80;;
59028;SDS011;45919;51.420;5.454;2022-09-09T07:00:45;10.82;;;3.70;;
59028;SDS011;45919;51.420;5.454;2022-09-09T07:01:47;14.95;;;4.00;;
59028;SDS011;45919;51.420;5.454;2022-09-09T07:02:50;9.60;;;3.50;;
59028;SDS011;45919;51.420;5.454;2022-09-09T07:03:53;9.15;;;3.83;;
59028;SDS011;45919;51.420;5.454;2022-09-09T07:04:55;10.10;;;3.80;;
59028;SDS011;45919;51.420;5.454;2022-09-09T07:05:59;12.57;;;3.88;;
59028;SDS011;45919;51.420;5.454;2022-09-09T07:07:01;10.02;;;3.83;;
59028;SDS011;45919;51.420;5.454;2022-09-09T07:08:03;10.45;;;3.72;;
59028;SDS011;45919;51.420;5.454;2022-09-09T07:09:06;12.80;;;4.07;;
59028;SDS011;45919;51.420;5.454;2022-09-09T07:10:09;9.68;;;3.75;;
59028;SDS011;45919;51.420;5.454;2022-09-09T07:11:11;11.68;;;3.65;;
59028;SDS011;45919;51.420;5.454;2022-09-09T07:12:12;7.35;;;3.42;;
59028;SDS011;45919;51.420;5.454;2022-09-09T07:13:14;10.88;;;3.92;;
59028;SDS011;45919;51.420;5.454;2022-09-09T07:14:16;10.23;;;3.80;;
59028;SDS011;45919;51.420;5.454;2022-09-09T07:15:18;12.98;;;3.92;;